Time;durP1;ratioP1;P1;durP2;ratioP2;P2;SDS_P1;SDS_P2;PMS_P1;PMS_P2;Temp;Humidity;BMP_temperature;BMP_pressure;BME280_temperature;BME280_humidity;BME280_pressure;Samples;Min_cycle;Max_cycle;Signal;HPM_P1;HPM_P2
2021/04/06 00:01:17;;;;;;;13.63;1.85;;;3.50;91.80;;;;;;4999506;28;20125;-83
2021/04/06 00:03:47;;;;;;;7.45;1.88;;;3.50;91.80;;;;;;4998691;28;20041;-82
2021/04/06 00:06:14;;;;;;;16.23;2.53;;;3.50;91.90;;;;;;5014942;28;20068;-82
2021/04/06 00:08:40;;;;;;;12.43;1.98;;;3.50;92.20;;;;;;4998626;28;20025;-82
2021/04/06 00:11:07;;;;;;;15.15;2.13;;;3.50;91.90;;;;;;4999931;28;20018;-82
2021/04/06 00:13:36;;;;;;;7.47;1.77;;;3.60;92.00;;;;;;5018097;28;20017;-82
2021/04/06 00:16:05;;;;;;;11.57;1.58;;;3.60;92.00;;;;;;5021762;28;20077;-82
2021/04/06 00:18:33;;;;;;;13.48;2.00;;;3.60;92.10;;;;;;5022541;28;20079;-82
2021/04/06 00:21:02;;;;;;;11.50;2.30;;;3.50;92.10;;;;;;5022128;28;20061;-82
2021/04/06 00:23:30;;;;;;;11.10;1.90;;;3.50;92.20;;;;;;5022482;28;20511;-82
2021/04/06 00:25:57;;;;;;;10.48;1.77;;;3.50;92.20;;;;;;4998547;28;20407;-82
2021/04/06 00:28:36;;;;;;;8.25;1.30;;;3.50;92.20;;;;;;4998220;28;20038;-82
2021/04/06 00:31:04;;;;;;;10.68;2.92;;;3.50;92.30;;;;;;5014516;28;20037;-82
2021/04/06 00:33:42;;;;;;;7.65;1.52;;;3.50;92.30;;;;;;5014204;28;20388;-82
2021/04/06 00:36:08;;;;;;;10.65;1.70;;;3.50;92.30;;;;;;5015804;28;20029;-83
2021/04/06 00:38:42;;;;;;;11.32;3.08;;;3.50;92.30;;;;;;5014321;28;20030;-83
2021/04/06 00:41:13;;;;;;;9.30;1.58;;;3.50;92.30;;;;;;5014222;28;20022;-82
2021/04/06 00:43:45;;;;;;;8.20;1.23;;;3.50;92.40;;;;;;5014094;28;20044;-82
2021/04/06 00:46:32;;;;;;;15.35;1.85;;;3.50;92.50;;;;;;5014354;28;20022;-82
2021/04/06 00:48:58;;;;;;;12.75;2.50;;;3.50;92.50;;;;;;5002734;28;20022;-82
2021/04/06 00:51:24;;;;;;;11.50;1.80;;;3.50;92.60;;;;;;4997804;28;20395;-82
2021/04/06 00:53:52;;;;;;;12.80;1.90;;;3.50;92.70;;;;;;5014145;28;20109;-82
2021/04/06 00:56:21;;;;;;;11.30;2.88;;;3.50;92.70;;;;;;5014204;28;20036;-83
2021/04/06 00:58:51;;;;;;;16.67;3.35;;;3.50;92.70;;;;;;5015099;28;20542;-82
2021/04/06 01:01:26;;;;;;;13.30;2.60;;;3.50;92.80;;;;;;5014192;28;20056;-82
2021/04/06 01:03:54;;;;;;;12.48;2.45;;;3.50;92.80;;;;;;5015560;28;20076;-82
2021/04/06 01:06:19;;;;;;;10.88;1.70;;;3.50;92.90;;;;;;5015225;28;20109;-82
2021/04/06 01:08:45;;;;;;;17.95;3.00;;;3.50;92.90;;;;;;4997231;28;20554;-83
2021/04/06 01:11:11;;;;;;;13.73;2.05;;;3.50;93.00;;;;;;5013864;28;20076;-83
2021/04/06 01:13:37;;;;;;;12.20;2.03;;;3.50;93.00;;;;;;5015156;28;20471;-82
2021/04/06 01:16:03;;;;;;;11.05;2.42;;;3.40;93.10;;;;;;4994111;28;20037;-82
2021/04/06 01:18:30;;;;;;;12.30;2.72;;;3.40;93.00;;;;;;4997453;28;20026;-82
2021/04/06 01:20:56;;;;;;;16.52;2.80;;;3.40;93.00;;;;;;5013553;28;20062;-82
2021/04/06 01:23:23;;;;;;;15.82;2.10;;;3.40;93.20;;;;;;5013855;28;20030;-82
2021/04/06 01:25:55;;;;;;;10.55;2.13;;;3.40;93.10;;;;;;5013578;28;20038;-82
2021/04/06 01:28:26;;;;;;;18.95;3.05;;;3.40;93.10;;;;;;5013701;28;20029;-82
2021/04/06 01:30:52;;;;;;;13.75;2.47;;;3.30;93.10;;;;;;5013644;28;20022;-82
2021/04/06 01:33:22;;;;;;;12.40;2.17;;;3.30;93.10;;;;;;5014514;28;20088;-82
2021/04/06 01:35:54;;;;;;;10.88;1.80;;;3.30;93.10;;;;;;5013818;28;20026;-82
2021/04/06 01:38:27;;;;;;;12.40;2.58;;;3.30;93.10;;;;;;5014640;28;20391;-82
2021/04/06 01:41:00;;;;;;;14.52;2.80;;;3.30;93.10;;;;;;5013638;28;20407;-82
2021/04/06 01:43:30;;;;;;;11.80;2.50;;;3.20;93.10;;;;;;5014491;28;20064;-82
2021/04/06 01:45:58;;;;;;;16.65;4.13;;;3.20;93.10;;;;;;5013175;28;20044;-82
2021/04/06 01:48:27;;;;;;;14.00;1.98;;;3.20;93.20;;;;;;5013132;28;20026;-82
2021/04/06 01:50:54;;;;;;;10.90;2.42;;;3.20;93.10;;;;;;4996824;28;20033;-82
2021/04/06 01:53:22;;;;;;;22.08;2.58;;;3.20;93.10;;;;;;5012893;28;20483;-82
2021/04/06 01:55:51;;;;;;;13.25;2.15;;;3.20;93.30;;;;;;5013110;28;20021;-82
2021/04/06 01:58:18;;;;;;;14.50;2.30;;;3.20;93.50;;;;;;5012850;28;20113;-82
2021/04/06 02:01:06;;;;;;;15.10;2.35;;;3.20;93.20;;;;;;4996685;28;20659;-82
2021/04/06 02:03:36;;;;;;;12.15;2.22;;;3.20;93.30;;;;;;5014344;28;20535;-82
2021/04/06 02:06:02;;;;;;;15.45;2.22;;;3.30;93.30;;;;;;5014355;28;20025;-82
2021/04/06 02:08:30;;;;;;;21.33;2.83;;;3.20;93.20;;;;;;5012794;28;20116;-82
2021/04/06 02:10:57;;;;;;;13.57;2.40;;;3.20;93.20;;;;;;5012935;28;20057;-82
2021/04/06 02:13:22;;;;;;;12.95;2.25;;;3.20;93.20;;;;;;5013859;28;20028;-82
2021/04/06 02:16:00;;;;;;;13.55;2.75;;;3.30;93.20;;;;;;4996295;28;20454;-82
2021/04/06 02:18:28;;;;;;;20.92;3.13;;;3.20;93.20;;;;;;5013874;28;20113;-82
2021/04/06 02:20:56;;;;;;;9.82;2.33;;;3.20;93.10;;;;;;5011621;28;20046;-82
2021/04/06 02:23:23;;;;;;;10.75;2.33;;;3.20;93.10;;;;;;5013869;28;20448;-81
2021/04/06 02:25:50;;;;;;;14.90;2.47;;;3.20;93.00;;;;;;5012308;28;20502;-82
2021/04/06 02:31:40;;;;;;;13.57;2.78;;;3.20;93.10;;;;;;5012483;28;20532;-82
2021/04/06 02:34:06;;;;;;;21.73;2.40;;;3.20;93.10;;;;;;4995586;28;20403;-81
2021/04/06 02:36:32;;;;;;;15.35;2.30;;;3.20;93.00;;;;;;4995927;28;20030;-80
2021/04/06 02:38:58;;;;;;;15.00;2.83;;;3.10;92.90;;;;;;5013503;28;20041;-81
2021/04/06 02:41:23;;;;;;;14.55;2.20;;;3.10;92.90;;;;;;5012199;28;20072;-81
2021/04/06 02:43:50;;;;;;;13.60;2.85;;;3.10;93.00;;;;;;5011991;28;20026;-80
2021/04/06 02:46:21;;;;;;;13.23;2.10;;;3.10;93.00;;;;;;5012342;28;20036;-80
2021/04/06 02:48:47;;;;;;;16.15;3.13;;;3.10;92.90;;;;;;5011805;28;20498;-81
2021/04/06 02:51:13;;;;;;;9.15;1.90;;;3.10;92.80;;;;;;5013329;28;20022;-81
2021/04/06 02:53:40;;;;;;;15.02;2.72;;;3.00;92.80;;;;;;5013258;28;20424;-81
2021/04/06 02:56:07;;;;;;;15.13;2.28;;;3.00;92.80;;;;;;5012039;28;20037;-81
2021/04/06 02:58:39;;;;;;;15.90;2.30;;;3.00;92.70;;;;;;4992156;28;20030;-81
2021/04/06 03:01:18;;;;;;;12.75;2.13;;;3.00;93.00;;;;;;5011739;28;20514;-81
2021/04/06 03:03:44;;;;;;;10.45;2.13;;;3.00;92.60;;;;;;5011879;28;20513;-81
2021/04/06 03:06:13;;;;;;;9.57;1.85;;;3.00;92.50;;;;;;4995224;28;20022;-81
2021/04/06 03:08:41;;;;;;;12.32;1.70;;;3.00;92.60;;;;;;5011748;28;20127;-81
2021/04/06 03:11:11;;;;;;;11.45;2.28;;;2.90;92.50;;;;;;5011945;28;20103;-81
2021/04/06 03:13:43;;;;;;;10.25;1.92;;;2.90;92.40;;;;;;5012176;28;20025;-81
2021/04/06 03:16:09;;;;;;;16.25;2.35;;;2.90;92.30;;;;;;5011494;28;20033;-81
2021/04/06 03:18:40;;;;;;;9.00;2.13;;;2.90;92.20;;;;;;5011778;28;20018;-81
2021/04/06 03:21:11;;;;;;;9.45;2.20;;;2.90;92.30;;;;;;5011548;28;20038;-81
2021/04/06 03:23:37;;;;;;;;;;;2.90;92.30;;;;;;5012093;28;20108;-81
2021/04/06 03:26:05;;;;;;;9.57;2.08;;;2.90;92.30;;;;;;5011310;28;19999;-81
2021/04/06 03:28:35;;;;;;;8.43;1.23;;;2.80;92.30;;;;;;4995592;28;20026;-81
2021/04/06 03:31:14;;;;;;;14.68;3.00;;;2.80;92.40;;;;;;5011600;28;20053;-81
2021/04/06 03:33:41;;;;;;;9.30;1.48;;;2.80;92.50;;;;;;5012308;28;20105;-81
2021/04/06 03:36:08;;;;;;;5.07;1.23;;;2.70;92.50;;;;;;5011267;28;20030;-81
2021/04/06 03:38:35;;;;;;;7.28;1.20;;;2.70;92.50;;;;;;5012397;28;20112;-81
2021/04/06 03:41:01;;;;;;;5.07;1.30;;;2.70;92.60;;;;;;5011288;28;20038;-81
2021/04/06 03:43:26;;;;;;;7.50;1.45;;;2.70;92.70;;;;;;4994643;28;20495;-81
2021/04/06 03:46:03;;;;;;;5.65;1.10;;;2.60;92.70;;;;;;4994837;28;20033;-81
2021/04/06 03:48:31;;;;;;;5.80;1.10;;;2.60;92.80;;;;;;5011104;28;20025;-81
2021/04/06 03:50:58;;;;;;;7.47;1.42;;;2.60;92.90;;;;;;5011097;28;20483;-81
2021/04/06 03:53:25;;;;;;;6.65;1.33;;;2.60;92.90;;;;;;4994719;28;20026;-81
2021/04/06 03:56:13;;;;;;;10.60;1.42;;;2.60;93.00;;;;;;5011127;28;20033;-82
2021/04/06 04:01:10;;;;;;;5.75;1.50;;;2.60;93.00;;;;;;5011418;28;20038;-81
2021/04/06 04:03:36;;;;;;;9.93;3.42;;;2.60;93.10;;;;;;5010930;28;20034;-81
2021/04/06 04:06:03;;;;;;;9.43;1.70;;;2.60;93.10;;;;;;5010955;28;20442;-81
2021/04/06 04:08:28;;;;;;;8.02;1.58;;;2.50;93.10;;;;;;5012017;28;20042;-82
2021/04/06 04:10:54;;;;;;;11.10;1.70;;;2.60;93.10;;;;;;5013676;28;20026;-82
2021/04/06 04:13:20;;;;;;;10.93;1.80;;;2.60;93.10;;;;;;5012289;28;20026;-82
2021/04/06 04:15:46;;;;;;;10.68;1.70;;;2.50;93.10;;;;;;5011161;28;20399;-82
2021/04/06 04:18:12;;;;;;;12.48;1.73;;;2.50;93.10;;;;;;5010067;28;20442;-82
2021/04/06 04:20:37;;;;;;;9.10;1.60;;;2.50;93.20;;;;;;4993059;28;20040;-82
2021/04/06 04:23:03;;;;;;;5.65;1.27;;;2.50;93.20;;;;;;4992967;28;20132;-82
2021/04/06 04:25:29;;;;;;;10.77;1.90;;;2.50;93.40;;;;;;4990698;28;20034;-82
2021/04/06 04:27:54;;;;;;;9.70;1.55;;;2.40;93.40;;;;;;4989039;28;20031;-82
2021/04/06 04:33:06;;;;;;;10.02;1.33;;;2.40;93.50;;;;;;5018818;23;20069;-81
2021/04/06 04:35:32;;;;;;;11.98;1.88;;;2.40;93.50;;;;;;5001430;28;20054;-81
2021/04/06 04:37:58;;;;;;;6.15;1.20;;;2.50;93.60;;;;;;4994254;28;20382;-81
2021/04/06 04:40:24;;;;;;;5.90;1.10;;;2.40;93.60;;;;;;4980049;28;20018;-82
2021/04/06 04:42:54;;;;;;;6.43;1.52;;;2.40;93.60;;;;;;4994261;28;20529;-82
2021/04/06 04:45:24;;;;;;;8.52;1.80;;;2.40;93.60;;;;;;5012877;28;20018;-81
2021/04/06 04:47:50;;;;;;;10.38;3.03;;;2.40;93.60;;;;;;4997916;28;20026;-82
2021/04/06 04:50:17;;;;;;;7.55;1.55;;;2.40;93.80;;;;;;4997871;28;20120;-81
2021/04/06 04:52:44;;;;;;;5.80;1.20;;;2.40;93.60;;;;;;5002939;28;20022;-81
2021/04/06 04:55:15;;;;;;;9.65;1.58;;;2.40;93.60;;;;;;4986530;28;20026;-82
2021/04/06 04:57:41;;;;;;;5.68;1.15;;;2.40;93.60;;;;;;5014305;28;20022;-81
2021/04/06 05:00:08;;;;;;;6.80;1.20;;;2.40;93.60;;;;;;4987937;28;20364;-81
2021/04/06 05:02:34;;;;;;;6.18;1.38;;;2.40;93.70;;;;;;4980784;28;20464;-81
2021/04/06 05:04:59;;;;;;;9.80;1.58;;;2.40;93.70;;;;;;4997382;28;20041;-82
2021/04/06 05:07:25;;;;;;;8.75;1.52;;;2.40;93.70;;;;;;4994140;28;20041;-81
2021/04/06 05:09:51;;;;;;;5.30;1.42;;;2.40;93.70;;;;;;4990956;28;20112;-81
2021/04/06 05:12:17;;;;;;;8.70;1.60;;;2.40;93.70;;;;;;4984985;28;20027;-81
2021/04/06 05:14:42;;;;;;;9.98;1.63;;;2.40;93.70;;;;;;4999987;28;20471;-81
2021/04/06 05:17:08;;;;;;;8.15;1.40;;;2.50;93.80;;;;;;5001835;28;20121;-82
2021/04/06 05:19:34;;;;;;;6.88;1.63;;;2.40;93.70;;;;;;5013049;28;20021;-81
2021/04/06 05:21:59;;;;;;;8.10;1.83;;;2.40;93.70;;;;;;4995726;28;20452;-81
2021/04/06 05:24:25;;;;;;;8.05;1.77;;;2.40;93.60;;;;;;5010139;28;20080;-81
2021/04/06 05:26:50;;;;;;;6.07;1.70;;;2.40;93.60;;;;;;4997042;28;20030;-81
2021/04/06 05:29:41;;;;;;;10.20;2.15;;;2.30;93.60;;;;;;4997391;28;20503;-82
2021/04/06 05:32:07;;;;;;;11.50;1.67;;;2.30;93.70;;;;;;5014097;28;20014;-82
2021/04/06 05:34:32;;;;;;;6.78;1.80;;;2.30;93.70;;;;;;4981867;28;20038;-83
2021/04/06 05:36:58;;;;;;;10.80;1.55;;;2.20;93.60;;;;;;4991042;28;20061;-85
2021/04/06 05:39:24;;;;;;;5.25;1.10;;;2.20;93.60;;;;;;4997448;28;20057;-84
2021/04/06 05:41:50;;;;;;;9.45;1.85;;;2.20;93.70;;;;;;5019004;28;20391;-83
2021/04/06 05:44:17;;;;;;;7.03;1.40;;;2.20;93.60;;;;;;4996921;28;20072;-83
2021/04/06 05:46:46;;;;;;;7.63;1.58;;;2.20;93.70;;;;;;4981435;28;20030;-82
2021/04/06 05:49:15;;;;;;;9.27;1.50;;;2.20;93.70;;;;;;5018134;28;20152;-83
2021/04/06 05:51:42;;;;;;;8.40;1.40;;;2.20;93.70;;;;;;5013052;28;20481;-82
2021/04/06 05:54:10;;;;;;;9.32;1.83;;;2.20;93.80;;;;;;5013864;28;20035;-83
2021/04/06 05:56:36;;;;;;;6.30;1.40;;;2.20;93.80;;;;;;5012820;28;20038;-82
2021/04/06 05:59:03;;;;;;;8.27;1.55;;;2.20;93.70;;;;;;5015240;28;20037;-82
2021/04/06 06:01:30;;;;;;;10.55;1.92;;;2.20;93.80;;;;;;5002200;28;20017;-82
2021/04/06 06:03:56;;;;;;;7.65;1.70;;;2.30;93.80;;;;;;4992388;28;20029;-82
2021/04/06 06:06:23;;;;;;;9.27;2.38;;;2.30;93.80;;;;;;5007568;28;20021;-82
2021/04/06 06:08:57;;;;;;;6.70;1.38;;;2.30;93.80;;;;;;5003092;28;20379;-82
2021/04/06 06:11:23;;;;;;;5.80;1.60;;;2.30;93.90;;;;;;4997151;28;20025;-82
2021/04/06 06:13:48;;;;;;;5.80;1.40;;;2.30;94.00;;;;;;5013263;28;20510;-82
2021/04/06 06:16:18;;;;;;;9.18;1.83;;;2.40;94.00;;;;;;5000773;28;20056;-82
2021/04/06 06:19:05;;;;;;;9.05;2.08;;;2.40;94.00;;;;;;4996203;28;20014;-82
2021/04/06 06:21:50;;;;;;;4.80;1.15;;;2.50;94.00;;;;;;5004078;28;20109;-82
2021/04/06 06:24:30;;;;;;;11.45;1.73;;;2.50;94.00;;;;;;4989774;28;20018;-82
2021/04/06 06:26:57;;;;;;;13.32;1.73;;;2.60;94.00;;;;;;4990375;28;20487;-82
2021/04/06 06:29:26;;;;;;;12.43;1.73;;;2.60;94.00;;;;;;5004221;28;20014;-82
2021/04/06 06:31:56;;;;;;;8.45;1.77;;;2.60;93.90;;;;;;4998848;28;20113;-83
2021/04/06 06:34:33;;;;;;;8.10;1.60;;;2.70;93.90;;;;;;5013933;28;20050;-82
2021/04/06 06:37:07;;;;;;;7.47;1.50;;;2.70;93.90;;;;;;5022795;28;20032;-82
2021/04/06 06:39:34;;;;;;;9.88;1.77;;;2.70;93.90;;;;;;5027600;28;20030;-81
2021/04/06 06:42:04;;;;;;;6.80;1.52;;;2.80;93.80;;;;;;4981061;28;20092;-82
2021/04/06 06:44:34;;;;;;;9.48;1.52;;;2.80;93.70;;;;;;5000311;28;20044;-82
2021/04/06 06:47:33;;;;;;;10.25;1.58;;;2.80;93.70;;;;;;4989307;28;20084;-82
2021/04/06 06:50:10;;;;;;;11.13;1.77;;;2.80;93.60;;;;;;4992007;28;20046;-82
2021/04/06 06:52:36;;;;;;;6.25;1.60;;;2.80;93.70;;;;;;5001446;28;20017;-82
2021/04/06 06:55:24;;;;;;;8.65;1.67;;;2.80;93.70;;;;;;5019147;28;20505;-82
2021/04/06 06:58:00;;;;;;;8.27;1.77;;;2.80;93.70;;;;;;5020009;28;20506;-81
2021/04/06 07:00:26;;;;;;;7.15;1.67;;;2.90;93.70;;;;;;4984007;28;20034;-82
2021/04/06 07:02:51;;;;;;;10.05;1.58;;;2.90;93.80;;;;;;4984357;28;20034;-82
2021/04/06 07:05:23;;;;;;;11.63;2.17;;;3.00;93.70;;;;;;4974452;28;20088;-81
2021/04/06 07:08:08;;;;;;;8.18;1.40;;;3.00;93.60;;;;;;4998656;28;20029;-82
2021/04/06 07:10:53;;;;;;;5.13;1.40;;;3.00;93.70;;;;;;5006428;28;20437;-82
2021/04/06 07:13:21;;;;;;;6.53;1.40;;;3.10;93.80;;;;;;5017033;28;20404;-82
2021/04/06 07:15:49;;;;;;;7.18;1.67;;;3.10;93.80;;;;;;5000083;28;20014;-83
2021/04/06 07:18:21;;;;;;;8.95;3.08;;;3.10;93.80;;;;;;5012691;28;20479;-82
2021/04/06 07:20:56;;;;;;;6.93;1.45;;;3.20;93.80;;;;;;4995053;28;20494;-83
2021/04/06 07:23:49;;;;;;;8.23;1.42;;;3.20;93.70;;;;;;5003434;28;20120;-84
2021/04/06 07:26:18;;;;;;;10.45;2.05;;;3.30;93.70;;;;;;5012753;28;20593;-83
2021/04/06 07:28:44;;;;;;;9.38;2.05;;;3.30;93.70;;;;;;5008955;28;20069;-83
2021/04/06 07:31:12;;;;;;;8.43;1.60;;;3.30;93.70;;;;;;4983962;28;20026;-84
2021/04/06 07:33:42;;;;;;;10.32;2.05;;;3.40;93.70;;;;;;4981204;28;20522;-82
2021/04/06 07:36:10;;;;;;;9.45;1.75;;;3.50;93.80;;;;;;5002856;28;20085;-82
2021/04/06 07:38:42;;;;;;;4.72;1.52;;;3.50;93.70;;;;;;4995176;28;20065;-82
2021/04/06 07:41:08;;;;;;;7.32;1.67;;;3.60;93.70;;;;;;4981897;28;20030;-83
2021/04/06 07:43:34;;;;;;;6.40;1.83;;;3.70;93.70;;;;;;5012617;28;20371;-83
2021/04/06 07:46:00;;;;;;;9.23;2.05;;;3.70;93.70;;;;;;4996374;28;20057;-83
2021/04/06 07:48:46;;;;;;;6.47;1.58;;;3.80;93.60;;;;;;5012561;28;20030;-82
2021/04/06 07:51:24;;;;;;;9.23;1.80;;;3.90;93.60;;;;;;4995035;28;20057;-82
2021/04/06 07:53:56;;;;;;;7.97;1.58;;;4.00;93.60;;;;;;5003700;28;20428;-83
2021/04/06 07:56:52;;;;;;;12.05;1.90;;;4.00;93.70;;;;;;5012435;28;20434;-83
2021/04/06 07:59:18;;;;;;;3.03;1.50;;;4.10;93.30;;;;;;5002460;28;20081;-82
2021/04/06 08:02:04;;;;;;;8.45;1.60;;;4.20;93.30;;;;;;4997585;28;20026;-83
2021/04/06 08:04:48;;;;;;;5.43;1.02;;;4.20;93.30;;;;;;5012606;28;20046;-82
2021/04/06 08:07:19;;;;;;;5.35;1.73;;;4.20;93.20;;;;;;5021840;28;20025;-83
2021/04/06 08:09:56;;;;;;;8.73;1.50;;;4.20;93.20;;;;;;5002286;28;20033;-83
2021/04/06 08:12:41;;;;;;;6.03;1.30;;;4.20;93.10;;;;;;5003679;28;20434;-82
2021/04/06 08:15:15;;;;;;;6.88;1.30;;;4.30;93.20;;;;;;4995449;28;20371;-82
2021/04/06 08:17:51;;;;;;;8.25;1.35;;;4.30;93.10;;;;;;5005096;28;20035;-83
2021/04/06 08:20:29;;;;;;;5.80;1.23;;;4.30;93.10;;;;;;5002106;28;20030;-82
2021/04/06 08:23:02;;;;;;;4.15;1.10;;;4.40;93.20;;;;;;5002897;28;20022;-82
2021/04/06 08:25:28;;;;;;;5.65;1.02;;;4.50;93.00;;;;;;5025692;28;20368;-82
2021/04/06 08:28:05;;;;;;;5.25;1.30;;;4.60;92.90;;;;;;5008649;28;20037;-80
2021/04/06 08:30:36;;;;;;;4.63;1.15;;;4.70;92.80;;;;;;5002940;28;20022;-80
2021/04/06 08:33:08;;;;;;;4.88;1.40;;;4.80;92.60;;;;;;5006788;28;20029;-81
2021/04/06 08:38:24;;;;;;;7.35;1.17;;;5.10;92.50;;;;;;5008102;28;20029;-81
2021/04/06 08:40:59;;;;;;;8.13;1.60;;;5.10;92.00;;;;;;5003667;28;20065;-82
2021/04/06 08:43:33;;;;;;;8.68;1.30;;;5.20;90.80;;;;;;4994237;28;20038;-82
2021/04/06 08:46:26;;;;;;;5.60;1.30;;;5.10;90.30;;;;;;4986831;28;20033;-81
2021/04/06 08:48:57;;;;;;;5.72;0.95;;;5.10;90.50;;;;;;5001279;28;20062;-82
2021/04/06 08:51:42;;;;;;;4.00;1.00;;;5.10;90.80;;;;;;5005734;28;20471;-82
2021/04/06 08:54:09;;;;;;;4.28;0.88;;;5.20;91.20;;;;;;5005400;28;20028;-81
2021/04/06 08:56:42;;;;;;;4.07;0.80;;;5.30;91.40;;;;;;5003078;28;20022;-80
2021/04/06 08:59:14;;;;;;;4.97;1.33;;;5.40;91.30;;;;;;5005943;28;20494;-80
2021/04/06 09:01:42;;;;;;;4.45;1.10;;;5.50;91.40;;;;;;5008644;28;20017;-80
2021/04/06 09:04:12;;;;;;;6.28;1.08;;;5.60;91.10;;;;;;5005100;28;20025;-80
2021/04/06 09:06:48;;;;;;;4.50;0.80;;;5.70;90.60;;;;;;5000735;28;20073;-80
2021/04/06 09:09:17;;;;;;;4.70;0.90;;;5.80;90.00;;;;;;5002326;28;20364;-80
2021/04/06 09:12:08;;;;;;;4.00;0.80;;;5.80;89.00;;;;;;5003478;28;20459;-80
2021/04/06 09:14:37;;;;;;;4.10;0.90;;;5.80;88.10;;;;;;5000441;28;20355;-80
2021/04/06 09:17:03;;;;;;;3.92;0.68;;;5.70;88.60;;;;;;5019736;28;20021;-80
2021/04/06 09:19:29;;;;;;;3.55;0.70;;;5.80;90.00;;;;;;4996677;28;20036;-81
2021/04/06 09:21:58;;;;;;;4.60;0.85;;;5.90;90.00;;;;;;5002930;28;20120;-80
2021/04/06 09:24:26;;;;;;;2.75;0.73;;;5.90;90.20;;;;;;4999187;28;20125;-80
2021/04/06 09:26:53;;;;;;;4.20;0.80;;;6.00;88.20;;;;;;5005184;28;20526;-80
2021/04/06 09:29:25;;;;;;;2.53;0.55;;;6.10;87.20;;;;;;5007189;28;20034;-81
2021/04/06 09:32:04;;;;;;;5.53;0.85;;;6.20;87.30;;;;;;5006918;28;20525;-81
2021/04/06 09:34:32;;;;;;;2.88;1.02;;;6.30;85.90;;;;;;5004309;28;20118;-81
2021/04/06 09:36:59;;;;;;;5.88;1.35;;;6.30;86.60;;;;;;5003877;28;20034;-82
2021/04/06 09:39:26;;;;;;;9.70;1.40;;;6.50;85.90;;;;;;5009146;28;20026;-82
2021/04/06 09:41:53;;;;;;;3.08;0.93;;;6.60;86.60;;;;;;4985466;28;20466;-80
2021/04/06 09:44:21;;;;;;;6.15;1.33;;;6.70;86.40;;;;;;4989683;28;20096;-80
2021/04/06 09:46:51;;;;;;;3.83;1.65;;;6.90;85.40;;;;;;4995429;28;21327;-80
2021/04/06 09:49:18;;;;;;;5.03;1.30;;;7.00;83.00;;;;;;4993718;28;20053;-80
2021/04/06 09:51:51;;;;;;;2.90;0.90;;;7.00;81.40;;;;;;4994679;28;20026;-80
2021/04/06 09:54:30;;;;;;;3.95;0.70;;;6.80;80.50;;;;;;5000916;28;20415;-81
2021/04/06 09:56:57;;;;;;;1.92;0.68;;;6.70;80.40;;;;;;4999572;28;20165;-80
2021/04/06 09:59:24;;;;;;;1.60;0.40;;;6.60;83.10;;;;;;4995474;28;20028;-80
2021/04/06 10:01:51;;;;;;;2.90;0.70;;;6.50;82.70;;;;;;4999760;28;20125;-80
2021/04/06 10:04:35;;;;;;;1.63;0.52;;;6.60;83.70;;;;;;4980287;28;20026;-80
2021/04/06 10:07:10;;;;;;;2.42;0.57;;;6.60;83.00;;;;;;5000178;28;20057;-80
2021/04/06 10:09:41;;;;;;;2.88;0.73;;;6.70;83.50;;;;;;4994921;28;20026;-80
2021/04/06 10:12:09;;;;;;;5.68;1.15;;;6.70;82.70;;;;;;4992973;28;20019;-80
2021/04/06 10:14:35;;;;;;;1.83;0.85;;;6.80;83.50;;;;;;4994409;28;20062;-80
2021/04/06 10:17:08;;;;;;;3.05;1.00;;;6.90;84.00;;;;;;4993202;28;20393;-80
2021/04/06 10:19:36;;;;;;;3.22;0.85;;;7.10;79.70;;;;;;5005426;28;20026;-80
2021/04/06 10:22:09;;;;;;;6.07;1.30;;;7.10;80.50;;;;;;5002254;28;20040;-79
2021/04/06 10:24:40;;;;;;;5.90;1.23;;;7.20;79.90;;;;;;5000193;28;20022;-80
2021/04/06 10:27:14;;;;;;;3.63;0.90;;;7.20;81.70;;;;;;5008053;28;20523;-81
2021/04/06 10:29:41;;;;;;;4.18;1.05;;;7.30;81.70;;;;;;4989533;28;20025;-81
2021/04/06 10:32:07;;;;;;;4.10;1.15;;;7.40;80.00;;;;;;5005323;28;20046;-80
2021/04/06 10:34:33;;;;;;;6.00;1.60;;;7.50;79.70;;;;;;5048661;23;20131;-80
2021/04/06 10:37:06;;;;;;;8.07;1.70;;;7.60;80.30;;;;;;5044110;28;20078;-79
2021/04/06 10:39:35;;;;;;;5.25;1.10;;;7.70;81.30;;;;;;5034051;28;20021;-80
2021/04/06 10:42:01;;;;;;;4.75;1.05;;;7.80;80.00;;;;;;5052548;28;20029;-80
2021/04/06 10:44:29;;;;;;;6.22;1.20;;;7.80;78.30;;;;;;5054803;28;20032;-80
2021/04/06 10:46:54;;;;;;;3.78;1.20;;;7.90;77.80;;;;;;5021025;28;20386;-80
2021/04/06 10:49:20;;;;;;;7.63;2.08;;;8.00;77.60;;;;;;5052937;28;20024;-81
2021/04/06 10:51:52;;;;;;;6.05;1.10;;;8.00;78.80;;;;;;5036732;28;20041;-81
2021/04/06 10:54:19;;;;;;;5.50;1.45;;;8.00;74.00;;;;;;5035054;28;20073;-81
2021/04/06 10:56:51;;;;;;;4.43;1.45;;;7.90;76.30;;;;;;5050518;28;20428;-81
2021/04/06 10:59:44;;;;;;;3.67;1.00;;;7.60;77.90;;;;;;5050264;28;20090;-81
2021/04/06 11:02:20;;;;;;;7.00;1.30;;;7.30;79.20;;;;;;5019409;28;20032;-81
2021/04/06 11:04:45;;;;;;;5.53;1.00;;;7.00;80.10;;;;;;5051322;28;20024;-80
2021/04/06 11:07:11;;;;;;;4.50;1.25;;;6.80;82.30;;;;;;5020930;28;20024;-80
2021/04/06 11:09:46;;;;;;;4.70;1.20;;;6.80;83.60;;;;;;5040376;28;20121;-81
2021/04/06 11:12:13;;;;;;;4.28;0.98;;;6.70;84.60;;;;;;5037266;28;20025;-80
2021/04/06 11:14:41;;;;;;;5.00;1.10;;;6.70;86.10;;;;;;5051082;28;20024;-81
2021/04/06 11:17:07;;;;;;;3.33;0.80;;;6.80;86.80;;;;;;5023550;28;20082;-80
2021/04/06 11:19:44;;;;;;;5.40;1.33;;;6.90;86.00;;;;;;5054360;28;20039;-80
2021/04/06 11:22:16;;;;;;;3.80;1.15;;;7.00;86.60;;;;;;5057351;28;20029;-80
2021/04/06 11:24:43;;;;;;;4.38;1.00;;;7.10;85.50;;;;;;5059875;28;20390;-81
2021/04/06 11:27:10;;;;;;;4.45;1.05;;;7.20;86.20;;;;;;5037164;28;20032;-79
2021/04/06 11:29:37;;;;;;;5.25;1.50;;;7.40;86.40;;;;;;5037286;28;20020;-80
2021/04/06 11:32:07;;;;;;;4.75;1.20;;;7.60;86.50;;;;;;5034765;28;20021;-81
2021/04/06 11:34:33;;;;;;;4.80;1.27;;;7.80;84.80;;;;;;5034034;28;20037;-80
2021/04/06 11:37:30;;;;;;;4.95;1.27;;;8.00;82.80;;;;;;5006453;28;20120;-79
2021/04/06 11:39:58;;;;;;;4.10;0.95;;;8.10;83.60;;;;;;5021663;28;20119;-80
2021/04/06 11:42:24;;;;;;;8.45;1.05;;;8.30;82.00;;;;;;5006940;28;20111;-80
2021/04/06 11:44:50;;;;;;;5.18;1.70;;;8.50;80.30;;;;;;5006903;28;20060;-79
2021/04/06 11:47:16;;;;;;;4.05;1.23;;;8.60;78.80;;;;;;5033365;28;20024;-80
2021/04/06 11:49:42;;;;;;;3.70;0.80;;;8.50;75.80;;;;;;5037459;28;20025;-80
2021/04/06 11:52:08;;;;;;;0.93;0.40;;;8.30;74.80;;;;;;5037832;28;20029;-80
2021/04/06 11:54:34;;;;;;;3.00;0.43;;;8.00;73.70;;;;;;5017866;28;20087;-80
2021/04/06 11:57:00;;;;;;;0.73;0.30;;;7.70;74.30;;;;;;5013509;28;20486;-81
2021/04/06 11:59:29;;;;;;;2.47;0.80;;;7.40;76.20;;;;;;5043498;28;20550;-80
2021/04/06 12:01:55;;;;;;;2.38;0.50;;;7.20;75.80;;;;;;5036508;28;20462;-80
2021/04/06 12:05:13;;;;;;;1.85;0.60;;;7.10;78.10;;;;;;5035985;28;20038;-80
2021/04/06 12:07:39;;;;;;;1.38;0.40;;;7.10;79.30;;;;;;5050179;28;20104;-81
2021/04/06 12:10:58;;;;;;;1.85;0.50;;;7.00;79.80;;;;;;5016769;28;20116;-80
2021/04/06 12:13:24;;;;;;;1.90;0.50;;;7.00;80.60;;;;;;5045982;28;20064;-81
2021/04/06 12:15:51;;;;;;;3.05;0.55;;;7.10;80.90;;;;;;5037464;28;20025;-80
2021/04/06 12:18:17;;;;;;;4.38;1.00;;;7.10;81.00;;;;;;5028535;28;20056;-80
2021/04/06 12:20:43;;;;;;;2.92;0.70;;;7.20;79.90;;;;;;5040842;28;20052;-82
2021/04/06 12:23:18;;;;;;;2.13;0.75;;;7.30;80.20;;;;;;5024505;28;20036;-81
2021/04/06 12:25:43;;;;;;;1.90;0.63;;;7.30;79.50;;;;;;5044559;28;20044;-81
2021/04/06 12:28:09;;;;;;;3.38;0.70;;;7.40;79.60;;;;;;5035568;28;20389;-81
2021/04/06 12:30:35;;;;;;;2.63;0.70;;;7.50;80.60;;;;;;5036610;28;20035;-81
2021/04/06 12:33:01;;;;;;;3.47;1.15;;;7.60;80.80;;;;;;5033043;28;20108;-81
2021/04/06 12:35:28;;;;;;;2.90;0.77;;;7.80;80.80;;;;;;5028447;28;20485;-81
2021/04/06 12:37:55;;;;;;;3.08;1.00;;;7.90;78.60;;;;;;5032776;28;20028;-81
2021/04/06 12:40:21;;;;;;;3.20;1.02;;;8.10;80.10;;;;;;5023378;28;20017;-81
2021/04/06 12:42:46;;;;;;;5.65;1.48;;;8.20;79.40;;;;;;5004303;28;20095;-80
2021/04/06 12:45:15;;;;;;;5.15;1.20;;;8.40;78.90;;;;;;5012809;28;20116;-81
2021/04/06 12:47:41;;;;;;;5.63;1.10;;;8.60;78.00;;;;;;5051444;28;20074;-81
2021/04/06 12:50:08;;;;;;;4.00;0.90;;;8.70;75.40;;;;;;5051853;28;20029;-80
2021/04/06 12:52:33;;;;;;;5.45;1.63;;;8.80;73.80;;;;;;5051468;28;20021;-81
2021/04/06 12:55:06;;;;;;;4.32;1.15;;;8.80;71.60;;;;;;5045244;28;20028;-80
2021/04/06 12:57:32;;;;;;;7.25;1.40;;;8.70;72.90;;;;;;5039438;28;20036;-80
2021/04/06 12:59:57;;;;;;;4.63;0.90;;;8.60;74.50;;;;;;5053530;28;20029;-81
2021/04/06 13:02:24;;;;;;;2.15;0.60;;;8.40;73.00;;;;;;5054898;28;20070;-80
2021/04/06 13:04:50;;;;;;;5.40;0.80;;;8.20;72.80;;;;;;5036598;28;20042;-81
2021/04/06 13:07:16;;;;;;;3.67;0.75;;;7.90;73.50;;;;;;5053599;28;20029;-81
2021/04/06 13:09:41;;;;;;;2.65;0.43;;;7.70;72.10;;;;;;5014217;28;20020;-80
2021/04/06 13:12:07;;;;;;;1.38;0.40;;;7.50;73.50;;;;;;5029506;28;20037;-80
2021/04/06 13:14:33;;;;;;;3.00;0.77;;;7.40;75.30;;;;;;5038642;28;20486;-81
2021/04/06 13:17:27;;;;;;;2.80;0.70;;;7.40;72.60;;;;;;5046494;28;20479;-80
2021/04/06 13:19:53;;;;;;;3.95;0.90;;;7.30;72.80;;;;;;5022940;28;20021;-80
2021/04/06 13:22:18;;;;;;;5.97;0.70;;;7.20;74.10;;;;;;5015338;28;20062;-80